Time;durP1;ratioP1;P1;durP2;ratioP2;P2;SDS_P1;SDS_P2;PMS_P1;PMS_P2;Temp;Humidity;BMP_temperature;BMP_pressure;BME280_temperature;BME280_humidity;BME280_pressure;Samples;Min_cycle;Max_cycle;Signal;HPM_P1;HPM_P2
2022/05/03 00:00:50;;;;;;;9.20;6.72;;;;;;;8.44;100.00;95662.69;5012888;28;20755;-74
2022/05/03 00:03:23;;;;;;;8.02;6.28;;;;;;;8.42;100.00;95665.38;5012592;28;21396;-74
2022/05/03 00:06:00;;;;;;;11.48;6.30;;;;;;;8.43;100.00;95668.78;5012302;28;24968;-74
2022/05/03 00:08:32;;;;;;;7.97;6.85;;;;;;;8.38;100.00;95660.44;5012508;28;24416;-74
2022/05/03 00:11:06;;;;;;;6.43;5.82;;;;;;;8.33;100.00;95659.84;5012626;28;21233;-74
2022/05/03 00:13:41;;;;;;;8.05;6.40;;;;;;;8.35;100.00;95663.19;5012244;28;20776;-74
2022/05/03 00:16:09;;;;;;;10.70;6.78;;;;;;;8.25;100.00;95660.28;5012462;28;20756;-74
2022/05/03 00:18:37;;;;;;;9.45;7.18;;;;;;;8.19;100.00;95664.06;5012621;28;20759;-74
2022/05/03 00:21:04;;;;;;;8.53;6.03;;;;;;;8.16;100.00;95659.06;5012361;28;21360;-74
2022/05/03 00:23:30;;;;;;;7.32;6.63;;;;;;;8.16;100.00;95665.97;5012201;28;24467;-74
2022/05/03 00:25:58;;;;;;;6.80;6.13;;;;;;;8.27;100.00;95661.03;5012012;28;24424;-74
2022/05/03 00:28:25;;;;;;;7.13;5.63;;;;;;;8.12;100.00;95654.13;5012189;28;20762;-74
2022/05/03 00:30:52;;;;;;;7.20;5.70;;;;;;;7.92;100.00;95647.47;5012242;28;20758;-74
2022/05/03 00:33:20;;;;;;;7.35;5.25;;;;;;;7.92;100.00;95650.06;5011850;28;24479;-74
2022/05/03 00:35:49;;;;;;;5.95;5.13;;;;;;;7.96;100.00;95651.56;5012028;28;20804;-74
2022/05/03 00:38:15;;;;;;;5.90;5.30;;;;;;;7.94;100.00;95651.66;5012084;28;21136;-74
2022/05/03 00:40:49;;;;;;;5.85;4.90;;;;;;;8.02;100.00;95647.84;5012227;28;24424;-74
2022/05/03 00:43:23;;;;;;;5.32;4.78;;;;;;;7.83;100.00;95646.25;5012109;28;20667;-74
2022/05/03 00:45:57;;;;;;;8.82;5.40;;;;;;;7.72;100.00;95649.41;5012188;28;20829;-74
2022/05/03 00:48:44;;;;;;;5.65;5.07;;;;;;;7.66;100.00;95652.28;5012013;28;20760;-74
2022/05/03 00:51:16;;;;;;;6.28;4.82;;;;;;;7.68;100.00;95644.50;5011843;28;21210;-74
2022/05/03 00:53:55;;;;;;;5.63;5.13;;;;;;;7.67;100.00;95643.63;5011642;28;20725;-75
2022/05/03 00:56:31;;;;;;;8.35;5.28;;;;;;;7.67;100.00;95642.81;5011582;28;21224;-74
2022/05/03 00:59:02;;;;;;;5.35;4.85;;;;;;;7.64;100.00;95638.66;5012010;28;20646;-74
2022/05/03 01:01:41;;;;;;;6.13;4.93;;;;;;;7.66;100.00;95641.97;5011717;28;20674;-74
2022/05/03 01:04:12;;;;;;;5.80;4.68;;;;;;;7.74;100.00;95636.41;5011703;28;20887;-74
2022/05/03 01:06:52;;;;;;;5.22;4.72;;;;;;;7.78;100.00;95632.75;5011505;28;20752;-74
2022/05/03 01:09:25;;;;;;;5.20;4.70;;;;;;;7.80;100.00;95638.66;5010797;28;20765;-74
2022/05/03 01:12:05;;;;;;;7.00;4.72;;;;;;;7.83;100.00;95630.78;5011626;28;20669;-74
2022/05/03 01:14:44;;;;;;;5.00;4.60;;;;;;;7.85;100.00;95625.53;5011773;28;20737;-74
2022/05/03 01:17:18;;;;;;;6.00;5.28;;;;;;;7.83;100.00;95629.94;5011494;28;20811;-74
2022/05/03 01:19:57;;;;;;;5.25;4.75;;;;;;;7.83;100.00;95635.09;5011350;28;20809;-74
2022/05/03 01:23:01;;;;;;;6.68;4.88;;;;;;;7.83;100.00;95624.78;5011234;28;20675;-75
2022/05/03 01:26:02;;;;;;;7.57;4.70;;;;;;;7.83;100.00;95632.53;5003951;28;21302;-74
2022/05/03 01:28:32;;;;;;;6.07;4.68;;;;;;;7.75;100.00;95628.63;5011375;28;20642;-74
2022/05/03 01:31:06;;;;;;;5.57;4.90;;;;;;;7.72;100.00;95622.78;5011071;28;20725;-74
2022/05/03 01:33:34;;;;;;;5.65;4.82;;;;;;;7.71;100.00;95624.53;5011183;28;20685;-74
2022/05/03 01:36:01;;;;;;;6.97;5.13;;;;;;;7.76;100.00;95616.56;5011033;28;20763;-74
2022/05/03 01:38:36;;;;;;;6.90;5.13;;;;;;;7.80;100.00;95624.94;5011340;28;20787;-75
2022/05/03 01:41:21;;;;;;;13.98;5.20;;;;;;;7.73;100.00;95620.13;5011474;28;20655;-75
2022/05/03 01:44:09;;;;;;;6.32;4.95;;;;;;;7.75;100.00;95614.91;5010903;28;21535;-74
2022/05/03 01:46:37;;;;;;;5.00;4.23;;;;;;;7.63;100.00;95623.28;5010778;28;20777;-75
2022/05/03 01:52:11;;;;;;;5.53;4.93;;;;;;;7.38;100.00;95618.56;5010854;28;24403;-74
2022/05/03 01:55:03;;;;;;;7.40;5.28;;;;;;;7.46;100.00;95621.59;5011102;28;20712;-74
2022/05/03 01:57:41;;;;;;;8.20;7.40;;;;;;;7.23;100.00;95625.34;5010783;28;20741;-74
2022/05/03 02:00:09;;;;;;;8.50;6.28;;;;;;;6.88;100.00;95640.06;5010238;28;24982;-74
2022/05/03 02:02:52;;;;;;;9.55;5.95;;;;;;;6.70;100.00;95631.50;5009983;28;24455;-74
2022/05/03 02:05:27;;;;;;;6.72;6.03;;;;;;;6.73;100.00;95637.31;5010346;28;24421;-74
2022/05/03 02:07:56;;;;;;;6.82;6.13;;;;;;;6.79;100.00;95634.47;5034683;22;21347;-76
2022/05/03 02:10:46;;;;;;;6.75;6.13;;;;;;;6.44;100.00;95635.34;5029845;28;24424;-76
2022/05/03 02:14:43;;;;;;;8.23;6.63;;;;;;;6.19;100.00;95633.13;5030005;28;24680;-76
2022/05/03 02:16:27;;;;;;;7.25;6.55;;;;;;;6.28;100.00;95641.25;5029483;28;24432;-76
2022/05/03 02:19:07;;;;;;;9.70;6.85;;;;;;;6.34;100.00;95629.84;5030037;28;24940;-75
2022/05/03 02:21:45;;;;;;;7.13;6.45;;;;;;;6.49;100.00;95638.56;5034167;28;24424;-76
2022/05/03 02:24:22;;;;;;;7.95;6.43;;;;;;;6.54;100.00;95637.41;5034054;28;24438;-76
2022/05/03 02:26:55;;;;;;;6.75;6.10;;;;;;;6.68;100.00;95638.47;5034010;28;20730;-76
2022/05/03 02:29:27;;;;;;;6.47;5.68;;;;;;;6.79;100.00;95642.19;5034088;28;20764;-76
2022/05/03 02:32:02;;;;;;;7.43;5.97;;;;;;;6.87;100.00;95638.38;5034086;28;21297;-76
2022/05/03 02:34:36;;;;;;;6.30;5.57;;;;;;;6.94;100.00;95640.56;5034095;28;24432;-76
2022/05/03 02:37:13;;;;;;;6.43;5.80;;;;;;;7.01;100.00;95643.69;5033883;28;24550;-76
2022/05/03 02:39:51;;;;;;;5.88;5.35;;;;;;;7.02;100.00;95643.59;5033714;28;24915;-76
2022/05/03 02:42:19;;;;;;;6.93;5.93;;;;;;;7.00;100.00;95635.09;5033948;28;20832;-76
2022/05/03 02:44:47;;;;;;;7.97;4.82;;;;;;;7.01;100.00;95639.34;5033805;28;24420;-76
2022/05/03 02:47:27;;;;;;;7.13;5.13;;;;;;;7.05;100.00;95639.22;5033514;28;24416;-76
2022/05/03 02:50:04;;;;;;;5.72;5.13;;;;;;;7.09;100.00;95638.97;5033725;28;20675;-76
2022/05/03 02:52:41;;;;;;;5.72;5.13;;;;;;;7.08;100.00;95642.44;5033793;28;20671;-76
2022/05/03 02:55:19;;;;;;;7.53;5.43;;;;;;;7.01;100.00;95641.09;5033872;28;20662;-76
2022/05/03 02:57:54;;;;;;;6.00;5.40;;;;;;;7.00;100.00;95636.84;5033592;28;20667;-76
2022/05/03 03:03:24;;;;;;;6.90;5.33;;;;;;;7.08;100.00;95633.88;5033282;28;24415;-75
2022/05/03 03:05:56;;;;;;;5.20;4.80;;;;;;;7.10;100.00;95635.47;5033578;28;20647;-76
2022/05/03 03:08:24;;;;;;;5.80;4.95;;;;;;;7.03;100.00;95632.38;5033413;28;24486;-76
2022/05/03 03:10:53;;;;;;;7.68;5.13;;;;;;;6.98;100.00;95634.34;5033365;28;24511;-76
2022/05/03 03:13:30;;;;;;;5.60;4.80;;;;;;;6.87;100.00;95633.25;5033342;28;24432;-75
2022/05/03 03:15:57;;;;;;;6.97;4.40;;;;;;;6.82;100.00;95630.03;5033043;28;24477;-76
2022/05/03 03:18:24;;;;;;;5.70;5.05;;;;;;;6.79;100.00;95629.31;5033085;28;24840;-76
2022/05/03 03:20:55;;;;;;;5.85;4.97;;;;;;;6.77;100.00;95627.72;5033156;28;24516;-76
2022/05/03 03:23:26;;;;;;;5.88;5.22;;;;;;;6.82;100.00;95627.47;5032810;28;24497;-76
2022/05/03 03:25:54;;;;;;;5.80;5.20;;;;;;;6.84;100.00;95631.66;5033064;28;24438;-76
2022/05/03 03:28:23;;;;;;;5.60;5.00;;;;;;;6.94;100.00;95632.84;5033153;28;24431;-76
2022/05/03 03:30:50;;;;;;;7.25;5.43;;;;;;;6.65;100.00;95633.47;5033238;28;24436;-75
2022/05/03 03:33:19;;;;;;;5.45;5.00;;;;;;;6.46;100.00;95624.09;5032057;28;24444;-76
2022/05/03 03:35:46;;;;;;;5.93;5.32;;;;;;;6.20;100.00;95622.78;5032742;28;25040;-76
2022/05/03 03:38:15;;;;;;;6.35;5.05;;;;;;;6.14;100.00;95632.53;5032950;28;24451;-76
2022/05/03 03:40:45;;;;;;;5.47;4.93;;;;;;;6.14;100.00;95630.78;5032906;28;20805;-76
2022/05/03 03:43:12;;;;;;;8.02;5.82;;;;;;;6.29;100.00;95629.22;5032584;28;24419;-76
2022/05/03 03:45:38;;;;;;;6.93;5.97;;;;;;;6.23;100.00;95642.34;5032548;28;25017;-76
2022/05/03 03:48:06;;;;;;;11.63;6.57;;;;;;;6.04;100.00;95627.81;5032823;28;24515;-76
2022/05/03 03:50:34;;;;;;;6.90;6.20;;;;;;;5.98;100.00;95638.38;5032321;28;24419;-76
2022/05/03 03:53:01;;;;;;;7.45;6.00;;;;;;;5.99;100.00;95637.47;5032322;28;24477;-76
2022/05/03 03:55:30;;;;;;;8.73;5.85;;;;;;;6.03;100.00;95627.88;5032326;28;24809;-76
2022/05/03 03:57:58;;;;;;;9.80;6.10;;;;;;;6.04;100.00;95626.97;5032019;28;24448;-76
2022/05/03 04:00:25;;;;;;;6.75;6.05;;;;;;;5.96;100.00;95629.06;5031902;28;24439;-76
2022/05/03 04:02:52;;;;;;;8.02;5.90;;;;;;;6.01;100.00;95630.53;5031721;28;24434;-76
2022/05/03 04:05:21;;;;;;;7.68;6.25;;;;;;;6.07;100.00;95626.81;5032119;28;24428;-76
2022/05/03 04:07:48;;;;;;;9.18;5.88;;;;;;;6.18;100.00;95626.31;5032110;28;24439;-76
2022/05/03 04:10:15;;;;;;;5.55;4.93;;;;;;;6.21;100.00;95633.91;5032073;28;24789;-76
2022/05/03 04:12:43;;;;;;;8.73;6.00;;;;;;;6.25;100.00;95627.69;5032064;28;24423;-76
2022/05/03 04:15:10;;;;;;;7.67;6.03;;;;;;;6.24;100.00;95624.28;5032042;28;24425;-75
2022/05/03 04:17:36;;;;;;;6.18;5.57;;;;;;;6.26;100.00;95621.63;5031873;28;24863;-75
2022/05/03 04:20:03;;;;;;;6.20;5.60;;;;;;;6.29;100.00;95632.59;5031926;28;25204;-75
2022/05/03 04:22:31;;;;;;;7.15;5.82;;;;;;;6.41;100.00;95631.19;5032012;28;24832;-75
2022/05/03 04:24:59;;;;;;;6.63;5.60;;;;;;;6.19;100.00;95631.41;5032217;28;24523;-75
2022/05/03 04:27:26;;;;;;;6.10;5.55;;;;;;;6.12;100.00;95634.31;5031767;28;24769;-75
2022/05/03 04:29:55;;;;;;;5.78;5.18;;;;;;;6.12;100.00;95637.75;5031803;28;24532;-75
2022/05/03 04:32:21;;;;;;;6.18;5.63;;;;;;;5.93;100.00;95640.34;5031868;28;24477;-75
2022/05/03 04:34:48;;;;;;;5.60;5.10;;;;;;;5.87;100.00;95635.44;5029567;28;24444;-75
2022/05/03 04:37:15;;;;;;;8.43;6.03;;;;;;;5.98;100.00;95637.56;5031426;28;25032;-75
2022/05/03 04:39:42;;;;;;;5.80;5.03;;;;;;;6.07;100.00;95645.66;5031512;28;24813;-75
2022/05/03 04:42:09;;;;;;;6.03;5.43;;;;;;;6.18;100.00;95647.72;5031714;28;24801;-74
2022/05/03 04:44:36;;;;;;;6.40;5.80;;;;;;;6.24;100.00;95652.59;5030531;28;24478;-75
2022/05/03 04:47:04;;;;;;;6.53;5.93;;;;;;;6.35;100.00;95654.66;5031604;28;24481;-74
2022/05/03 04:49:30;;;;;;;6.43;5.82;;;;;;;6.44;100.00;95654.19;5031619;28;24423;-75
2022/05/03 04:51:57;;;;;;;5.53;5.03;;;;;;;6.55;100.00;95649.34;5031883;28;24477;-75
2022/05/03 04:54:24;;;;;;;5.93;5.10;;;;;;;6.68;100.00;95653.91;5037761;28;24983;-74
2022/05/03 04:56:54;;;;;;;5.68;5.07;;;;;;;6.77;100.00;95658.59;5023617;28;24435;-75
2022/05/03 04:59:20;;;;;;;6.38;5.45;;;;;;;6.90;100.00;95657.09;5031940;28;25038;-75
2022/05/03 05:01:47;;;;;;;6.50;5.43;;;;;;;6.96;100.00;95663.66;5031736;28;24520;-75
2022/05/03 05:04:15;;;;;;;5.57;5.03;;;;;;;6.94;100.00;95663.75;5031264;28;24431;-75
2022/05/03 05:06:41;;;;;;;6.80;5.30;;;;;;;6.70;100.00;95658.06;5030953;28;24440;-75
2022/05/03 05:09:08;;;;;;;5.65;5.00;;;;;;;6.69;100.00;95658.16;5031514;28;24454;-75
2022/05/03 05:11:34;;;;;;;6.25;5.65;;;;;;;6.74;100.00;95653.59;5031067;28;24422;-75
2022/05/03 05:14:01;;;;;;;7.05;5.60;;;;;;;6.93;100.00;95656.09;5030662;28;24434;-74
2022/05/03 05:16:27;;;;;;;7.85;6.18;;;;;;;7.05;100.00;95662.38;5031018;28;24432;-74
2022/05/03 05:18:54;;;;;;;7.78;6.07;;;;;;;7.01;100.00;95664.28;5031286;28;24541;-74
2022/05/03 05:21:22;;;;;;;6.20;5.70;;;;;;;6.99;100.00;95663.50;5031073;28;24424;-74
2022/05/03 05:23:48;;;;;;;6.47;5.82;;;;;;;7.07;100.00;95660.53;5030833;28;24432;-74
2022/05/03 05:26:15;;;;;;;6.37;5.73;;;;;;;7.20;100.00;95659.03;5031044;28;24848;-77
2022/05/03 05:28:41;;;;;;;6.32;5.72;;;;;;;7.24;100.00;95665.69;5031052;28;24424;-73
2022/05/03 05:31:08;;;;;;;7.40;6.20;;;;;;;7.32;100.00;95662.72;5030780;28;24972;-73
2022/05/03 05:33:34;;;;;;;7.00;5.78;;;;;;;7.54;100.00;95665.00;5030729;28;24424;-73
2022/05/03 05:36:00;;;;;;;7.72;6.32;;;;;;;7.72;100.00;95671.78;5030489;28;24821;-74
2022/05/03 05:38:28;;;;;;;9.48;5.97;;;;;;;7.74;100.00;95664.78;5030916;28;24995;-73
2022/05/03 05:40:55;;;;;;;6.43;5.87;;;;;;;7.67;100.00;95669.41;5030440;28;24462;-73
2022/05/03 05:43:21;;;;;;;6.40;5.80;;;;;;;7.86;100.00;95671.88;5030729;28;24419;-74
2022/05/03 05:45:48;;;;;;;6.70;6.10;;;;;;;8.02;100.00;95663.31;5030464;28;24505;-74
2022/05/03 05:48:15;;;;;;;6.38;5.78;;;;;;;8.14;100.00;95662.63;5030433;28;24515;-74
2022/05/03 05:50:42;;;;;;;7.17;6.47;;;;;;;8.52;100.00;95659.69;5030646;28;24494;-74
2022/05/03 05:55:54;;;;;;;7.00;6.32;;;;;;;8.66;100.00;95662.31;5029990;28;20715;-73
2022/05/03 05:58:21;;;;;;;12.45;7.25;;;;;;;8.78;100.00;95664.19;5025743;28;24468;-72
2022/05/03 06:00:47;;;;;;;6.75;6.15;;;;;;;8.85;100.00;95675.84;5021461;28;24443;-72
2022/05/03 06:03:15;;;;;;;7.65;6.38;;;;;;;8.96;100.00;95670.88;5027443;28;25083;-73
2022/05/03 06:05:41;;;;;;;7.88;6.32;;;;;;;8.98;100.00;95670.81;5028443;28;21029;-74
2022/05/03 06:08:08;;;;;;;6.47;5.88;;;;;;;9.07;100.00;95678.00;5011596;28;24435;-73
2022/05/03 06:10:34;;;;;;;6.47;5.85;;;;;;;9.16;100.00;95674.09;5010876;28;24443;-73
2022/05/03 06:13:03;;;;;;;6.70;6.07;;;;;;;9.33;100.00;95673.91;5016861;28;24497;-73
2022/05/03 06:15:29;;;;;;;7.15;6.22;;;;;;;9.51;100.00;95671.97;5015665;28;24536;-73
2022/05/03 06:17:55;;;;;;;8.38;6.35;;;;;;;9.75;100.00;95676.56;5010189;28;24460;-74
2022/05/03 06:20:22;;;;;;;7.57;6.55;;;;;;;9.93;100.00;95681.44;5013291;28;24459;-74
2022/05/03 06:22:49;;;;;;;7.32;6.63;;;;;;;9.62;100.00;95677.34;5023748;28;20804;-74
2022/05/03 06:25:16;;;;;;;10.55;7.10;;;;;;;9.58;100.00;95683.63;5025921;28;24522;-75
2022/05/03 06:27:42;;;;;;;8.77;6.93;;;;;;;9.78;100.00;95681.56;5026665;28;24443;-74
2022/05/03 06:30:11;;;;;;;8.10;6.82;;;;;;;9.91;100.00;95675.56;5015407;28;24447;-73
2022/05/03 06:32:39;;;;;;;7.40;6.70;;;;;;;10.15;100.00;95674.94;5028117;28;20815;-74
2022/05/03 06:35:07;;;;;;;8.18;6.90;;;;;;;10.48;100.00;95674.59;5024364;28;21289;-75
2022/05/03 06:37:36;;;;;;;8.80;6.63;;;;;;;10.34;100.00;95678.06;5025976;28;21205;-74
2022/05/03 06:40:03;;;;;;;6.93;6.32;;;;;;;10.34;100.00;95672.06;5012045;28;24794;-74
2022/05/03 06:42:29;;;;;;;8.30;6.43;;;;;;;10.44;100.00;95674.91;5014410;28;24517;-75
2022/05/03 06:45:00;;;;;;;9.95;6.68;;;;;;;10.26;100.00;95679.50;5022412;28;24499;-75
2022/05/03 06:47:28;;;;;;;9.80;6.63;;;;;;;10.39;100.00;95682.97;5017930;28;24458;-73
2022/05/03 06:49:54;;;;;;;7.73;6.93;;;;;;;10.86;100.00;95679.06;5029672;28;24844;-74
2022/05/03 06:52:21;;;;;;;7.63;6.15;;;;;;;11.21;100.00;95675.94;5012948;28;24440;-74
2022/05/03 06:54:47;;;;;;;9.23;7.05;;;;;;;11.31;100.00;95680.41;5029468;28;24523;-73
2022/05/03 06:57:13;;;;;;;8.40;6.60;;;;;;;11.56;100.00;95676.97;5029773;28;24427;-74
2022/05/03 06:59:40;;;;;;;8.18;6.57;;;;;;;11.79;100.00;95677.16;5020891;28;24459;-73
2022/05/03 07:02:07;;;;;;;7.97;7.07;;;;;;;11.66;100.00;95676.34;5014222;28;24837;-74
2022/05/03 07:04:35;;;;;;;9.05;7.20;;;;;;;11.78;100.00;95673.72;5012850;28;24531;-73
2022/05/03 07:07:01;;;;;;;8.50;7.10;;;;;;;11.80;100.00;95691.81;5018477;28;24467;-74
2022/05/03 07:09:27;;;;;;;9.30;6.57;;;;;;;11.80;100.00;95684.84;5024800;28;24841;-74
2022/05/03 07:11:54;;;;;;;8.75;6.93;;;;;;;11.92;100.00;95688.38;5033532;28;24439;-73
2022/05/03 07:14:22;;;;;;;7.43;6.20;;;;;;;12.10;100.00;95697.47;5026652;28;24436;-74
2022/05/03 07:16:48;;;;;;;7.85;7.00;;;;;;;12.03;100.00;95698.84;5020440;28;24439;-74
2022/05/03 07:24:45;;;;;;;8.55;6.57;;;;;;;12.62;100.00;95694.72;5025421;28;24505;-74
2022/05/03 07:27:13;;;;;;;8.27;6.13;;;;;;;13.10;100.00;95692.09;5014478;28;24540;-74
2022/05/03 07:29:39;;;;;;;7.10;6.38;;;;;;;13.76;100.00;95688.81;5020086;28;24429;-74
2022/05/03 07:32:06;;;;;;;9.48;6.15;;;;;;;14.36;100.00;95694.56;5018980;28;24778;-74
2022/05/03 07:34:33;;;;;;;8.45;6.88;;;;;;;14.88;100.00;95692.22;5029508;28;24437;-73
2022/05/03 07:37:01;;;;;;;7.55;6.75;;;;;;;15.30;98.36;95692.25;5021742;28;24451;-74
2022/05/03 07:39:27;;;;;;;6.55;5.90;;;;;;;15.27;94.22;95690.72;5018099;28;24510;-74
2022/05/03 07:41:53;;;;;;;9.18;6.72;;;;;;;15.64;94.11;95701.50;5024407;28;24466;-74
2022/05/03 07:44:20;;;;;;;9.73;6.80;;;;;;;15.75;89.83;95697.22;5012938;28;24437;-74
2022/05/03 07:46:46;;;;;;;8.40;6.30;;;;;;;15.86;88.66;95699.75;5015376;28;24444;-73
2022/05/03 07:49:13;;;;;;;11.20;6.40;;;;;;;16.03;89.48;95701.75;5031911;28;24435;-73
2022/05/03 07:51:41;;;;;;;8.63;7.20;;;;;;;15.63;91.16;95699.03;5018513;28;24437;-74
2022/05/03 07:54:09;;;;;;;9.20;6.97;;;;;;;15.49;91.43;95701.00;5027929;28;24527;-74
2022/05/03 07:56:36;;;;;;;10.70;7.20;;;;;;;15.33;91.53;95703.25;5012897;28;24539;-75
2022/05/03 07:59:03;;;;;;;7.88;6.60;;;;;;;15.25;95.15;95703.06;5020768;28;24515;-74
2022/05/03 08:01:29;;;;;;;9.18;6.68;;;;;;;15.39;96.04;95702.75;5015363;28;24908;-74
2022/05/03 08:03:56;;;;;;;7.78;6.97;;;;;;;15.01;93.88;95706.72;5017154;28;26230;-74
2022/05/03 08:06:25;;;;;;;7.05;6.35;;;;;;;15.06;95.10;95710.75;5013584;28;24452;-73
2022/05/03 08:08:52;;;;;;;8.65;6.82;;;;;;;15.12;94.60;95710.22;5013507;28;24440;-73
2022/05/03 08:11:20;;;;;;;9.65;7.15;;;;;;;15.31;96.87;95715.59;5012995;28;24451;-74
2022/05/03 08:13:48;;;;;;;8.02;7.07;;;;;;;15.04;95.37;95710.88;5026857;28;24444;-73
2022/05/03 08:16:18;;;;;;;8.20;6.90;;;;;;;15.03;96.17;95711.81;5012585;28;24965;-73
2022/05/03 08:18:44;;;;;;;8.10;7.38;;;;;;;15.12;95.77;95712.84;5019073;28;24482;-73
2022/05/03 08:21:11;;;;;;;9.48;7.22;;;;;;;15.33;94.73;95708.47;5020851;28;24448;-73
2022/05/03 08:23:38;;;;;;;8.97;7.67;;;;;;;15.41;94.09;95715.66;5011811;28;24508;-73
2022/05/03 08:26:05;;;;;;;9.98;6.97;;;;;;;15.53;93.23;95719.84;5028112;28;24796;-73
2022/05/03 08:28:32;;;;;;;7.75;7.05;;;;;;;15.63;90.80;95720.75;5023796;28;24794;-73
2022/05/03 08:30:59;;;;;;;12.97;7.20;;;;;;;15.74;92.03;95714.66;5023752;28;24508;-73
2022/05/03 08:33:26;;;;;;;8.80;6.43;;;;;;;16.23;91.08;95717.50;5024187;28;24444;-73
2022/05/03 08:35:53;;;;;;;9.40;5.20;;;;;;;16.21;81.83;95725.47;5016526;28;25039;-73
2022/05/03 08:43:49;;;;;;;4.50;4.10;;;;;;;16.88;76.76;95724.03;5028150;28;24593;-73
2022/05/03 08:46:17;;;;;;;4.45;3.47;;;;;;;16.62;78.18;95724.50;5013825;28;24448;-73
2022/05/03 08:48:45;;;;;;;4.22;3.88;;;;;;;17.04;75.81;95728.72;5027074;28;24447;-73
2022/05/03 08:51:16;;;;;;;5.03;3.75;;;;;;;17.12;71.53;95723.63;5020141;28;24436;-72
2022/05/03 08:53:43;;;;;;;4.63;4.07;;;;;;;17.13;73.43;95723.50;5020370;28;24459;-73
2022/05/03 08:56:09;;;;;;;5.53;3.80;;;;;;;17.36;72.73;95724.03;5012453;28;25035;-73
2022/05/03 08:58:36;;;;;;;4.27;3.77;;;;;;;17.54;75.32;95724.16;5024629;28;24702;-73
2022/05/03 09:01:04;;;;;;;3.70;3.07;;;;;;;17.84;65.58;95733.63;5020857;28;24467;-73
2022/05/03 09:03:30;;;;;;;4.57;3.23;;;;;;;18.03;69.72;95732.75;5011690;28;25012;-73
2022/05/03 09:05:57;;;;;;;5.47;2.83;;;;;;;18.27;71.93;95728.78;5011268;28;24533;-73
2022/05/03 09:08:24;;;;;;;4.70;3.10;;;;;;;18.22;72.70;95725.78;5011599;28;24474;-73
2022/05/03 09:10:51;;;;;;;3.80;3.40;;;;;;;18.00;72.07;95730.41;5011432;28;24475;-73
2022/05/03 09:13:19;;;;;;;6.32;3.33;;;;;;;18.08;70.36;95727.91;5011090;28;24423;-73
2022/05/03 09:15:47;;;;;;;5.70;3.72;;;;;;;18.24;68.37;95726.44;5011401;28;24460;-73
2022/05/03 09:18:26;;;;;;;5.78;3.25;;;;;;;18.33;71.18;95725.59;5011416;28;24834;-72
2022/05/03 09:23:48;;;;;;;3.45;2.85;;;;;;;18.53;65.81;95723.69;5011108;28;24395;-74
2022/05/03 09:26:16;;;;;;;3.92;3.15;;;;;;;18.66;69.86;95718.94;5011153;28;24436;-73
2022/05/03 09:28:47;;;;;;;3.33;2.58;;;;;;;18.83;61.29;95714.72;5011239;28;24424;-72
2022/05/03 09:31:16;;;;;;;2.95;2.40;;;;;;;18.94;60.68;95724.16;5010607;28;24452;-73
2022/05/03 09:33:43;;;;;;;3.55;3.10;;;;;;;18.86;63.94;95719.66;5011122;28;24539;-73
2022/05/03 09:36:11;;;;;;;5.05;3.20;;;;;;;18.90;61.58;95718.41;5010774;28;24424;-73
2022/05/03 09:38:47;;;;;;;7.18;3.50;;;;;;;19.12;65.93;95711.88;5010826;28;24941;-74
2022/05/03 09:41:15;;;;;;;4.68;3.40;;;;;;;19.33;62.86;95715.03;5015279;28;24962;-73
2022/05/03 09:44:06;;;;;;;3.17;2.80;;;;;;;19.40;67.75;95717.88;5030330;28;24995;-73
2022/05/03 09:46:50;;;;;;;6.47;3.45;;;;;;;19.83;69.61;95716.22;5030716;28;24952;-74
2022/05/03 09:49:20;;;;;;;7.03;3.65;;;;;;;19.38;59.49;95713.75;5030729;28;24456;-73
2022/05/03 09:51:49;;;;;;;6.33;3.10;;;;;;;19.59;62.16;95711.63;5030501;28;24443;-73
2022/05/03 09:54:17;;;;;;;3.57;2.83;;;;;;;19.80;65.53;95709.50;5030306;28;24492;-73
2022/05/03 09:56:49;;;;;;;3.90;3.20;;;;;;;19.76;58.68;95702.06;5030290;28;25049;-73
2022/05/03 09:59:17;;;;;;;5.25;4.15;;;;;;;19.10;57.43;95705.97;5030216;28;24551;-73
2022/05/03 10:01:43;;;;;;;5.10;3.33;;;;;;;19.42;61.96;95707.22;5030628;28;24474;-74
2022/05/03 10:04:11;;;;;;;3.55;2.92;;;;;;;19.80;69.50;95700.75;5030472;28;24420;-73
2022/05/03 10:06:39;;;;;;;3.95;2.97;;;;;;;19.90;65.52;95700.69;5030227;28;24435;-73
2022/05/03 10:09:05;;;;;;;3.45;2.60;;;;;;;20.29;61.37;95701.88;5030408;28;24419;-73
2022/05/03 10:11:34;;;;;;;6.22;3.50;;;;;;;20.17;55.90;95699.66;5030606;28;24470;-73
2022/05/03 10:14:00;;;;;;;5.70;3.00;;;;;;;19.96;55.13;95705.31;5030018;28;24446;-73
2022/05/03 10:22:04;;;;;;;5.63;2.70;;;;;;;19.78;56.17;95700.94;5030081;28;24472;-74
2022/05/03 10:24:31;;;;;;;3.60;2.65;;;;;;;19.72;57.65;95690.22;5030380;28;24427;-73
2022/05/03 10:27:06;;;;;;;5.13;3.20;;;;;;;19.79;53.99;95688.63;5030084;28;24420;-73
2022/05/03 10:29:35;;;;;;;4.03;3.30;;;;;;;19.76;57.45;95691.56;5030260;28;24477;-73
2022/05/03 10:32:06;;;;;;;3.72;3.22;;;;;;;19.72;57.95;95692.84;5030012;28;24535;-74
2022/05/03 10:34:56;;;;;;;5.07;2.10;;;;;;;19.27;53.38;95686.75;5030619;28;24427;-73
2022/05/03 10:37:56;;;;;;;3.13;2.67;;;;;;;19.02;51.61;95680.47;5030136;28;24527;-73
2022/05/03 10:40:31;;;;;;;3.83;3.08;;;;;;;18.99;54.24;95678.16;5029735;28;24439;-74
2022/05/03 10:43:06;;;;;;;3.60;2.88;;;;;;;19.05;51.41;95676.72;5033704;28;24456;-73
2022/05/03 10:45:48;;;;;;;5.90;2.90;;;;;;;19.36;56.87;95671.88;5033712;28;25046;-74
2022/05/03 10:48:25;;;;;;;2.72;2.53;;;;;;;20.05;64.25;95678.91;5033776;28;24941;-73
2022/05/03 10:50:52;;;;;;;2.90;2.50;;;;;;;20.22;57.87;95674.56;5033739;28;24427;-74
2022/05/03 10:53:24;;;;;;;4.90;3.70;;;;;;;20.21;55.82;95675.53;5033481;28;24778;-75
2022/05/03 10:56:18;;;;;;;4.55;3.97;;;;;;;20.10;57.94;95675.81;5033793;28;24423;-74
2022/05/03 10:59:05;;;;;;;5.72;4.03;;;;;;;19.91;56.02;95662.88;5033696;28;24430;-73
2022/05/03 11:01:32;;;;;;;3.40;2.80;;;;;;;20.11;53.54;95666.94;5033549;28;24474;-74
2022/05/03 11:04:12;;;;;;;3.20;2.90;;;;;;;19.98;62.31;95664.72;5033511;28;24427;-74
2022/05/03 11:06:44;;;;;;;5.00;3.67;;;;;;;19.88;56.63;95666.69;5033304;28;24443;-74
2022/05/03 11:09:15;;;;;;;4.43;3.47;;;;;;;19.72;57.75;95664.75;5035269;28;24535;-74
2022/05/03 11:12:01;;;;;;;4.50;3.40;;;;;;;19.70;57.90;95656.22;5036448;28;24511;-74
2022/05/03 11:14:47;;;;;;;4.57;3.45;;;;;;;19.76;57.70;95654.75;5033665;28;24988;-74
2022/05/03 11:17:14;;;;;;;5.90;3.88;;;;;;;19.95;64.13;95659.81;5033924;28;24518;-74
2022/05/03 11:19:52;;;;;;;4.82;3.42;;;;;;;19.85;60.61;95648.59;5033029;28;24480;-74
2022/05/03 11:22:20;;;;;;;5.32;3.42;;;;;;;19.97;61.66;95649.13;5033038;28;24507;-75
2022/05/03 11:24:48;;;;;;;5.95;3.33;;;;;;;19.94;56.22;95655.50;5032898;28;24849;-74
2022/05/03 11:27:17;;;;;;;3.17;2.85;;;;;;;19.80;56.77;95642.97;5032811;28;24431;-74
2022/05/03 11:29:45;;;;;;;3.60;2.97;;;;;;;19.50;58.49;95646.84;5033289;28;24980;-75
2022/05/03 11:32:13;;;;;;;3.92;2.83;;;;;;;19.25;57.16;95640.63;5032868;28;24428;-74
2022/05/03 11:34:39;;;;;;;10.35;3.05;;;;;;;19.37;57.95;95638.56;5033015;28;24937;-74
2022/05/03 11:37:07;;;;;;;4.28;3.20;;;;;;;19.41;61.87;95638.09;5032574;28;24420;-74
2022/05/03 11:39:36;;;;;;;4.57;2.97;;;;;;;19.67;66.64;95634.69;5032927;28;24447;-75
2022/05/03 11:42:03;;;;;;;4.38;2.45;;;;;;;19.65;60.29;95636.63;5032623;28;24477;-75
2022/05/03 11:44:31;;;;;;;5.10;3.00;;;;;;;19.46;54.87;95630.56;5032835;28;24833;-74
2022/05/03 11:47:02;;;;;;;5.25;3.22;;;;;;;19.28;54.25;95629.78;5032187;28;25054;-74
2022/05/03 11:49:31;;;;;;;4.57;2.97;;;;;;;18.63;54.71;95619.56;5032691;28;24631;-74
2022/05/03 11:57:34;;;;;;;3.67;2.60;;;;;;;19.21;60.63;95631.41;5032476;28;24422;-75
2022/05/03 12:00:04;;;;;;;6.00;2.85;;;;;;;19.00;54.91;95632.53;5032148;28;24965;-74
2022/05/03 12:02:34;;;;;;;5.20;2.70;;;;;;;19.22;59.14;95631.25;5032050;28;24941;-74
2022/05/03 12:05:03;;;;;;;4.47;3.30;;;;;;;19.14;51.91;95633.00;5032382;28;24486;-74
2022/05/03 12:07:29;;;;;;;5.13;3.20;;;;;;;19.16;57.02;95623.16;5032131;28;24876;-74
2022/05/03 12:09:56;;;;;;;4.53;2.67;;;;;;;19.09;59.00;95622.94;5032220;28;24430;-74
2022/05/03 12:15:15;;;;;;;3.17;2.60;;;;;;;18.92;54.01;95627.22;5032189;28;24957;-74
2022/05/03 12:17:55;;;;;;;6.30;3.28;;;;;;;19.24;57.73;95620.56;5032137;28;24504;-74
2022/05/03 12:20:22;;;;;;;6.40;3.10;;;;;;;19.57;61.31;95622.44;5032292;28;24447;-74
2022/05/03 12:23:11;;;;;;;5.20;3.20;;;;;;;19.63;55.87;95620.22;5022832;28;24436;-74